createdAt,value
2022-10-22T00:00:41.557Z,19.23
2022-10-22T00:03:08.741Z,19.21
2022-10-22T00:05:35.806Z,19.20
2022-10-22T00:08:03.910Z,19.19
2022-10-22T00:10:31.127Z,19.17
2022-10-22T00:12:58.152Z,19.16
2022-10-22T00:15:25.303Z,19.13
2022-10-22T00:17:52.453Z,19.14
2022-10-22T00:20:19.777Z,19.14
2022-10-22T00:22:46.903Z,19.13
2022-10-22T00:25:14.280Z,19.12
2022-10-22T00:27:41.635Z,19.10
2022-10-22T00:30:09.615Z,19.08
2022-10-22T00:32:36.834Z,19.10
2022-10-22T00:35:04.525Z,19.09
2022-10-22T00:37:31.812Z,19.08
2022-10-22T00:39:59.139Z,19.11
2022-10-22T00:42:27.860Z,19.11
2022-10-22T00:45:09.930Z,19.11
2022-10-22T00:47:59.554Z,19.13
2022-10-22T00:50:40.441Z,19.09
2022-10-22T00:53:15.156Z,19.07
2022-10-22T00:55:45.972Z,19.06
2022-10-22T00:58:13.913Z,19.05
2022-10-22T01:00:41.206Z,19.00
2022-10-22T01:03:09.128Z,18.98
2022-10-22T01:06:06.014Z,18.96
2022-10-22T01:08:38.806Z,18.94
2022-10-22T01:11:34.043Z,18.98
2022-10-22T01:14:25.174Z,18.99
2022-10-22T01:16:59.741Z,19.00
2022-10-22T01:19:41.636Z,19.04
2022-10-22T01:22:21.944Z,19.09
2022-10-22T01:25:17.062Z,19.13
2022-10-22T01:27:53.691Z,19.18
2022-10-22T01:30:21.047Z,19.16
2022-10-22T01:32:55.641Z,19.12
2022-10-22T01:35:28.284Z,19.06
2022-10-22T01:38:00.390Z,18.98
2022-10-22T01:40:29.198Z,18.92
2022-10-22T01:43:08.652Z,18.87
2022-10-22T01:45:43.734Z,18.81
2022-10-22T01:48:47.634Z,18.76
2022-10-22T01:51:29.947Z,18.71
2022-10-22T01:54:07.094Z,18.67
2022-10-22T01:56:54.145Z,18.63
2022-10-22T01:59:24.020Z,18.63
2022-10-22T02:02:08.270Z,18.58
2022-10-22T02:04:43.703Z,18.56
2022-10-22T02:07:14.330Z,18.54
2022-10-22T02:09:43.565Z,18.50
2022-10-22T02:12:11.675Z,18.49
2022-10-22T02:14:42.683Z,18.47
2022-10-22T02:17:16.030Z,18.47
2022-10-22T02:19:46.952Z,18.45
2022-10-22T02:22:14.456Z,18.42
2022-10-22T02:24:41.870Z,18.40
2022-10-22T02:27:54.746Z,18.39
2022-10-22T02:30:23.261Z,18.36
2022-10-22T02:33:08.821Z,18.37
2022-10-22T02:35:37.726Z,18.37
2022-10-22T02:38:05.501Z,18.36
2022-10-22T02:40:33.186Z,18.35
2022-10-22T02:43:00.582Z,18.35
2022-10-22T02:45:27.839Z,18.35
2022-10-22T02:47:55.019Z,18.33
2022-10-22T02:50:22.284Z,18.31
2022-10-22T02:52:49.373Z,18.30
2022-10-22T02:55:16.674Z,18.30
2022-10-22T02:57:43.874Z,18.32
2022-10-22T03:00:12.426Z,18.31
2022-10-22T03:02:39.546Z,18.30
2022-10-22T03:05:07.124Z,18.27
2022-10-22T03:07:34.737Z,18.25
2022-10-22T03:10:02.153Z,18.25
2022-10-22T03:12:29.231Z,18.23
2022-10-22T03:14:56.424Z,18.21
2022-10-22T03:17:23.656Z,18.19
2022-10-22T03:19:50.847Z,18.17
2022-10-22T03:22:27.675Z,18.15
2022-10-22T03:24:59.093Z,18.13
2022-10-22T03:27:28.553Z,18.12
2022-10-22T03:29:57.342Z,18.10
2022-10-22T03:32:24.399Z,18.08
2022-10-22T03:34:51.630Z,18.09
2022-10-22T03:37:19.085Z,18.07
2022-10-22T03:39:46.790Z,18.05
2022-10-22T03:42:14.041Z,18.02
2022-10-22T03:44:41.634Z,18.01
2022-10-22T03:47:08.773Z,18.02
2022-10-22T03:49:36.194Z,18.02
2022-10-22T03:52:09.321Z,18.03
2022-10-22T03:54:36.672Z,18.02
2022-10-22T03:57:05.673Z,18.01
2022-10-22T03:59:41.777Z,18.01
2022-10-22T04:02:10.397Z,18.00
2022-10-22T04:04:38.348Z,17.99
2022-10-22T04:07:06.701Z,17.98
2022-10-22T04:09:34.816Z,17.96
2022-10-22T04:12:02.485Z,17.97
2022-10-22T04:14:29.633Z,17.96
2022-10-22T04:16:56.695Z,17.95
2022-10-22T04:19:24.059Z,17.90
2022-10-22T04:21:51.085Z,17.90
2022-10-22T04:24:18.263Z,17.88
2022-10-22T04:26:45.299Z,17.85
2022-10-22T04:29:15.963Z,17.83
2022-10-22T04:31:43.682Z,17.81
2022-10-22T04:34:10.807Z,17.80
2022-10-22T04:36:37.973Z,17.76
2022-10-22T04:39:06.466Z,17.75
2022-10-22T04:41:36.270Z,17.73
2022-10-22T04:44:04.380Z,17.71
2022-10-22T04:46:33.926Z,17.70
2022-10-22T04:49:03.995Z,17.72
2022-10-22T04:51:31.817Z,17.74
2022-10-22T04:53:59.055Z,17.71
2022-10-22T04:56:29.199Z,17.72
2022-10-22T04:59:01.400Z,17.73
2022-10-22T05:01:31.202Z,17.72
2022-10-22T05:04:02.317Z,17.75
2022-10-22T05:06:31.071Z,17.74
2022-10-22T05:09:00.296Z,17.74
2022-10-22T05:11:30.186Z,17.73
2022-10-22T05:13:59.625Z,17.66
2022-10-22T05:16:29.126Z,17.62
2022-10-22T05:18:56.501Z,17.62
2022-10-22T05:21:23.728Z,17.71
2022-10-22T05:23:51.644Z,17.85
2022-10-22T05:26:21.072Z,18.07
2022-10-22T05:28:49.710Z,18.31
2022-10-22T05:31:18.298Z,18.58
2022-10-22T05:33:46.902Z,18.92
2022-10-22T05:36:17.057Z,19.35
2022-10-22T05:38:44.294Z,19.80
2022-10-22T05:41:17.281Z,20.30
2022-10-22T05:43:44.204Z,20.90
2022-10-22T05:46:15.710Z,21.34
2022-10-22T05:48:50.463Z,21.89
2022-10-22T05:51:18.081Z,22.37
2022-10-22T05:53:46.177Z,22.79
2022-10-22T05:56:16.055Z,23.26
2022-10-22T05:58:45.048Z,23.67
2022-10-22T06:01:24.120Z,23.97
2022-10-22T06:03:54.814Z,24.43
2022-10-22T06:06:31.450Z,24.85
2022-10-22T06:09:03.647Z,25.13
2022-10-22T06:11:34.269Z,25.25
2022-10-22T06:14:03.078Z,25.45
2022-10-22T06:16:31.625Z,25.56
2022-10-22T06:19:02.621Z,25.62
2022-10-22T06:21:30.942Z,25.76
2022-10-22T06:23:59.946Z,25.50
2022-10-22T06:26:27.144Z,25.40
2022-10-22T06:28:56.385Z,25.40
2022-10-22T06:31:24.652Z,25.65
2022-10-22T06:33:52.244Z,25.84
2022-10-22T06:36:21.893Z,26.03
2022-10-22T06:38:52.751Z,25.73
2022-10-22T06:41:22.180Z,25.77
2022-10-22T06:43:54.074Z,25.36
2022-10-22T06:46:22.644Z,24.90
2022-10-22T06:48:56.355Z,24.82
2022-10-22T06:51:23.809Z,24.90
2022-10-22T06:53:50.995Z,24.88
2022-10-22T06:56:20.856Z,24.81
2022-10-22T06:58:49.397Z,24.92
2022-10-22T07:01:18.262Z,25.27
2022-10-22T07:03:45.748Z,25.55
2022-10-22T07:06:14.894Z,25.38
2022-10-22T07:08:43.063Z,25.44
2022-10-22T07:11:11.889Z,25.37
2022-10-22T07:13:38.962Z,25.32
2022-10-22T07:16:07.703Z,25.27
2022-10-22T07:18:36.043Z,24.94
2022-10-22T07:21:03.252Z,24.67
2022-10-22T07:23:31.002Z,24.43
2022-10-22T07:25:59.404Z,24.25
2022-10-22T07:28:26.481Z,24.09
2022-10-22T07:30:53.848Z,23.96
2022-10-22T07:33:21.214Z,23.91
2022-10-22T07:35:48.586Z,23.84
2022-10-22T07:38:15.645Z,23.81
2022-10-22T07:40:42.849Z,23.80
2022-10-22T07:43:09.922Z,23.56
2022-10-22T07:45:37.068Z,23.39
2022-10-22T07:48:04.316Z,23.46
2022-10-22T07:50:31.501Z,23.48
2022-10-22T07:52:58.846Z,23.48
2022-10-22T07:55:26.440Z,23.47
2022-10-22T07:57:53.612Z,23.48
2022-10-22T08:00:23.204Z,23.46
2022-10-22T08:02:52.721Z,23.45
2022-10-22T08:05:19.993Z,23.55
2022-10-22T08:07:47.038Z,23.45
2022-10-22T08:10:14.474Z,23.47
2022-10-22T08:12:42.183Z,23.53
2022-10-22T08:15:10.334Z,23.65
2022-10-22T08:17:37.434Z,23.73
2022-10-22T08:20:05.593Z,23.75
2022-10-22T08:22:32.763Z,23.89
2022-10-22T08:25:00.673Z,23.96
2022-10-22T08:27:27.860Z,24.09
2022-10-22T08:29:55.057Z,24.21
2022-10-22T08:32:22.416Z,24.37
2022-10-22T08:34:49.715Z,24.36
2022-10-22T08:37:18.012Z,24.39
2022-10-22T08:39:45.863Z,24.36
2022-10-22T08:42:43.699Z,24.56
2022-10-22T08:45:20.033Z,24.74
2022-10-22T08:47:59.652Z,24.78
2022-10-22T08:50:41.097Z,24.89
2022-10-22T08:53:41.598Z,25.01
2022-10-22T08:56:09.519Z,25.06
2022-10-22T08:58:46.302Z,25.04
2022-10-22T09:01:32.670Z,25.09
2022-10-22T09:04:14.030Z,25.23
2022-10-22T09:06:44.573Z,25.36
2022-10-22T09:09:18.264Z,25.55
2022-10-22T09:11:48.895Z,25.47
2022-10-22T09:14:18.959Z,25.58
2022-10-22T09:17:11.043Z,25.59
2022-10-22T09:19:57.247Z,25.55
2022-10-22T09:22:42.505Z,25.62
2022-10-22T09:25:21.882Z,25.77
2022-10-22T09:27:50.531Z,25.86
2022-10-22T09:30:21.572Z,26.15
2022-10-22T09:32:55.329Z,26.32
2022-10-22T09:35:25.040Z,26.16
2022-10-22T09:37:57.214Z,26.23
2022-10-22T09:40:24.518Z,26.29
2022-10-22T09:42:51.751Z,26.43
2022-10-22T09:45:25.907Z,26.50
2022-10-22T09:48:12.372Z,26.52
2022-10-22T09:50:46.059Z,26.19
2022-10-22T09:53:37.395Z,26.41
2022-10-22T09:56:15.727Z,26.66
2022-10-22T09:58:44.998Z,26.84
2022-10-22T10:01:36.099Z,26.93
2022-10-22T10:04:09.586Z,27.05
2022-10-22T10:06:42.175Z,26.85
2022-10-22T10:09:17.255Z,26.86
2022-10-22T10:12:09.168Z,27.01
2022-10-22T10:15:03.289Z,27.18
2022-10-22T10:17:36.115Z,27.16
2022-10-22T10:20:16.577Z,27.18
2022-10-22T10:22:58.222Z,27.27
2022-10-22T10:25:42.502Z,26.89
2022-10-22T10:28:18.326Z,26.84
2022-10-22T10:31:07.310Z,26.85
2022-10-22T10:33:41.655Z,27.20
2022-10-22T10:36:34.291Z,27.40
2022-10-22T10:39:20.764Z,27.55
2022-10-22T10:42:09.531Z,27.43
2022-10-22T10:45:01.867Z,27.33
2022-10-22T10:47:42.303Z,27.23
2022-10-22T10:50:43.240Z,27.54
2022-10-22T10:53:29.699Z,27.47
2022-10-22T10:56:07.441Z,27.50
2022-10-22T10:58:42.521Z,27.78
2022-10-22T11:01:14.509Z,27.82
2022-10-22T11:03:58.396Z,27.76
2022-10-22T11:06:29.539Z,27.80
2022-10-22T11:09:08.407Z,27.76
2022-10-22T11:11:52.495Z,28.05
2022-10-22T11:14:46.144Z,28.08
2022-10-22T11:17:19.343Z,28.17
2022-10-22T11:20:03.437Z,28.36
2022-10-22T11:23:16.810Z,28.31
2022-10-22T11:25:49.800Z,28.39
2022-10-22T11:28:41.927Z,28.37
2022-10-22T11:31:17.724Z,28.58
2022-10-22T11:34:15.314Z,28.50
2022-10-22T11:36:50.056Z,28.46
2022-10-22T11:39:41.336Z,28.36
2022-10-22T11:42:36.785Z,28.29
2022-10-22T11:45:30.162Z,28.40
2022-10-22T11:48:10.635Z,28.17
2022-10-22T11:50:51.394Z,28.06
2022-10-22T11:53:39.399Z,28.27
2022-10-22T11:56:11.327Z,28.32
2022-10-22T11:58:50.850Z,28.24
2022-10-22T12:01:42.244Z,28.29
2022-10-22T12:04:18.563Z,28.50
2022-10-22T12:07:06.953Z,28.47
2022-10-22T12:09:41.208Z,28.52
2022-10-22T12:12:16.147Z,28.59
2022-10-22T12:14:59.563Z,28.58
2022-10-22T12:17:32.625Z,28.56
2022-10-22T12:20:08.334Z,28.69
2022-10-22T12:22:39.918Z,28.59
2022-10-22T12:25:20.368Z,28.58
2022-10-22T12:27:53.707Z,28.66
2022-10-22T12:30:26.397Z,28.55
2022-10-22T12:33:02.438Z,28.54
2022-10-22T12:35:36.079Z,28.55
2022-10-22T12:38:14.175Z,28.69
2022-10-22T12:40:47.497Z,28.71
2022-10-22T12:43:32.626Z,28.59
2022-10-22T12:46:03.132Z,28.73
2022-10-22T12:48:36.983Z,28.87
2022-10-22T12:51:08.664Z,28.69
2022-10-22T12:54:08.253Z,28.89
2022-10-22T12:56:38.125Z,28.95
2022-10-22T12:59:10.510Z,29.01
2022-10-22T13:01:42.928Z,28.89
2022-10-22T13:04:14.101Z,28.79
2022-10-22T13:07:05.736Z,28.62
2022-10-22T13:09:44.019Z,27.93
2022-10-22T13:12:17.270Z,27.30
2022-10-22T13:14:47.821Z,27.03
2022-10-22T13:17:21.471Z,26.64
2022-10-22T13:20:05.578Z,26.56
2022-10-22T13:22:53.623Z,26.30
2022-10-22T13:25:26.165Z,25.87
2022-10-22T13:28:20.825Z,25.62
2022-10-22T13:31:00.359Z,25.33
2022-10-22T13:33:30.912Z,25.30
2022-10-22T13:35:58.640Z,25.28
2022-10-22T13:38:28.034Z,25.20
2022-10-22T13:40:56.512Z,24.98
2022-10-22T13:43:25.315Z,24.84
2022-10-22T13:45:56.057Z,24.78
2022-10-22T13:48:25.789Z,24.71
2022-10-22T13:50:54.199Z,24.67
2022-10-22T13:53:24.250Z,24.81
2022-10-22T13:55:54.206Z,24.73
2022-10-22T13:58:26.161Z,24.76
2022-10-22T14:00:57.286Z,24.59
2022-10-22T14:03:32.533Z,24.61
2022-10-22T14:06:00.266Z,24.59
2022-10-22T14:08:28.316Z,24.48
2022-10-22T14:10:55.477Z,24.50
2022-10-22T14:13:22.794Z,24.55
2022-10-22T14:15:51.781Z,24.49
2022-10-22T14:18:27.828Z,24.48
2022-10-22T14:20:58.491Z,24.24
2022-10-22T14:23:28.990Z,24.22
2022-10-22T14:25:57.116Z,24.16
2022-10-22T14:28:24.703Z,24.07
2022-10-22T14:30:52.895Z,23.97
2022-10-22T14:33:32.983Z,23.93
2022-10-22T14:36:01.007Z,24.01
2022-10-22T14:38:28.637Z,24.05
2022-10-22T14:40:56.925Z,24.02
2022-10-22T14:43:27.556Z,23.92
2022-10-22T14:45:55.463Z,23.93
2022-10-22T14:48:22.855Z,23.96
2022-10-22T14:50:51.115Z,24.00
2022-10-22T14:53:18.656Z,24.07
2022-10-22T14:55:47.863Z,24.14
2022-10-22T14:58:15.709Z,24.19
2022-10-22T15:00:46.274Z,24.27
2022-10-22T15:03:13.764Z,24.18
2022-10-22T15:05:45.604Z,24.07
2022-10-22T15:08:16.093Z,24.00
2022-10-22T15:10:44.109Z,23.96
2022-10-22T15:15:44.734Z,23.89
2022-10-22T15:18:12.737Z,23.91
2022-10-22T15:20:40.652Z,23.87
2022-10-22T15:23:08.207Z,23.74
2022-10-22T15:25:38.870Z,23.73
2022-10-22T15:28:09.817Z,23.64
2022-10-22T15:30:37.707Z,23.64
2022-10-22T15:33:07.522Z,23.58
2022-10-22T15:35:36.431Z,23.48
2022-10-22T15:38:06.936Z,23.39
2022-10-22T15:40:35.158Z,23.37
2022-10-22T15:43:04.814Z,23.35
2022-10-22T15:45:37.077Z,23.31
2022-10-22T15:48:07.270Z,23.34
2022-10-22T15:50:38.952Z,23.28
2022-10-22T15:53:06.700Z,23.18
2022-10-22T15:55:34.010Z,23.14
2022-10-22T15:58:03.565Z,23.10
2022-10-22T16:00:34.174Z,23.05
2022-10-22T16:03:06.775Z,23.04
2022-10-22T16:05:34.202Z,23.01
2022-10-22T16:08:07.598Z,23.03
2022-10-22T16:10:35.177Z,22.86
2022-10-22T16:13:02.729Z,22.81
2022-10-22T16:15:31.695Z,22.86
2022-10-22T16:17:59.682Z,22.84
2022-10-22T16:20:27.701Z,22.79
2022-10-22T16:22:55.126Z,22.72
2022-10-22T16:25:22.388Z,22.73
2022-10-22T16:27:51.130Z,22.67
2022-10-22T16:30:22.605Z,22.64
2022-10-22T16:32:54.531Z,22.58
2022-10-22T16:35:22.753Z,22.54
2022-10-22T16:37:58.018Z,22.56
2022-10-22T16:40:26.077Z,22.57
2022-10-22T16:42:53.481Z,22.61
2022-10-22T16:45:20.694Z,22.61
2022-10-22T16:47:49.355Z,22.61
2022-10-22T16:50:20.241Z,22.62
2022-10-22T16:52:47.991Z,22.60
2022-10-22T16:55:21.346Z,22.59
2022-10-22T16:57:52.915Z,22.59
2022-10-22T17:00:21.368Z,22.55
2022-10-22T17:02:54.060Z,22.53
2022-10-22T17:05:23.011Z,22.44
2022-10-22T17:07:51.170Z,22.46
2022-10-22T17:12:53.996Z,22.44
2022-10-22T17:15:23.872Z,22.38
2022-10-22T17:17:54.077Z,22.41
2022-10-22T17:20:22.233Z,22.39
2022-10-22T17:22:50.099Z,22.43
2022-10-22T17:25:24.095Z,22.49
2022-10-22T17:27:54.387Z,22.55
2022-10-22T17:30:29.114Z,22.55
2022-10-22T17:32:56.750Z,22.50
2022-10-22T17:37:59.506Z,22.53
2022-10-22T17:40:27.693Z,22.51
2022-10-22T17:42:56.580Z,22.51
2022-10-22T17:45:28.947Z,22.55
2022-10-22T17:48:01.187Z,22.55
2022-10-22T17:50:31.059Z,22.49
2022-10-22T17:53:04.268Z,22.46
2022-10-22T17:55:38.581Z,22.42
2022-10-22T17:58:14.407Z,22.38
2022-10-22T18:00:52.882Z,22.39
2022-10-22T18:03:30.074Z,22.35
2022-10-22T18:06:07.984Z,22.37
2022-10-22T18:08:35.209Z,22.32
2022-10-22T18:11:16.441Z,22.29
2022-10-22T18:13:43.639Z,22.29
2022-10-22T18:16:10.848Z,22.25
2022-10-22T18:18:38.096Z,22.22
2022-10-22T18:21:05.471Z,22.16
2022-10-22T18:23:33.658Z,22.13
2022-10-22T18:26:00.695Z,22.09
2022-10-22T18:28:27.941Z,22.08
2022-10-22T18:30:56.327Z,22.06
2022-10-22T18:33:24.493Z,22.04
2022-10-22T18:35:52.726Z,21.98
2022-10-22T18:38:23.117Z,21.94
2022-10-22T18:40:50.826Z,21.91
2022-10-22T18:43:18.800Z,21.85
2022-10-22T18:45:47.437Z,21.81
2022-10-22T18:48:17.665Z,21.77
2022-10-22T18:50:46.022Z,21.74
2022-10-22T18:53:15.861Z,21.72
2022-10-22T18:55:43.576Z,21.68
2022-10-22T18:58:11.106Z,21.63
2022-10-22T19:00:38.773Z,21.60
2022-10-22T19:03:06.202Z,21.56
2022-10-22T19:05:33.767Z,21.56
2022-10-22T19:08:01.369Z,21.52
2022-10-22T19:10:28.701Z,21.49
2022-10-22T19:12:55.803Z,21.45
2022-10-22T19:15:23.303Z,21.45
2022-10-22T19:17:50.746Z,21.43
2022-10-22T19:20:24.594Z,21.39
2022-10-22T19:22:53.630Z,21.38
2022-10-22T19:25:21.065Z,21.35
2022-10-22T19:27:49.242Z,21.32
2022-10-22T19:30:17.815Z,21.29
2022-10-22T19:32:45.627Z,21.28
2022-10-22T19:35:16.680Z,21.26
2022-10-22T19:37:48.267Z,21.22
2022-10-22T19:40:16.282Z,21.20
2022-10-22T19:42:47.306Z,21.16
2022-10-22T19:45:15.578Z,21.12
2022-10-22T19:47:42.985Z,21.11
2022-10-22T19:50:10.131Z,21.11
2022-10-22T19:52:37.463Z,21.08
2022-10-22T19:55:04.982Z,21.05
2022-10-22T19:57:32.227Z,21.02
2022-10-22T19:59:59.575Z,21.02
2022-10-22T20:02:26.862Z,20.97
2022-10-22T20:04:54.160Z,20.97
2022-10-22T20:07:21.505Z,20.95
2022-10-22T20:09:48.903Z,20.92
2022-10-22T20:12:23.617Z,20.89
2022-10-22T20:14:52.026Z,20.90
2022-10-22T20:17:20.808Z,20.88
2022-10-22T20:19:48.897Z,20.84
2022-10-22T20:22:19.739Z,20.85
2022-10-22T20:24:47.956Z,20.87
2022-10-22T20:27:16.554Z,20.86
2022-10-22T20:29:44.781Z,20.82
2022-10-22T20:32:13.140Z,20.84
2022-10-22T20:34:42.029Z,20.85
2022-10-22T20:37:13.026Z,20.87
2022-10-22T20:39:40.779Z,20.82
2022-10-22T20:42:08.745Z,20.80
2022-10-22T20:44:36.541Z,20.74
2022-10-22T20:47:06.536Z,20.77
2022-10-22T20:49:34.398Z,20.76
2022-10-22T20:52:02.411Z,20.73
2022-10-22T20:54:30.452Z,20.69
2022-10-22T20:56:59.171Z,20.57
2022-10-22T20:59:32.975Z,20.60
2022-10-22T21:02:03.909Z,20.57
2022-10-22T21:04:46.589Z,20.55
2022-10-22T21:07:14.204Z,20.56
2022-10-22T21:09:41.348Z,20.55
2022-10-22T21:12:08.747Z,20.52
2022-10-22T21:14:35.855Z,20.51
2022-10-22T21:17:03.114Z,20.49
2022-10-22T21:19:31.493Z,20.46
2022-10-22T21:21:59.018Z,20.45
2022-10-22T21:24:26.966Z,20.42
2022-10-22T21:26:54.638Z,20.41
2022-10-22T21:29:22.557Z,20.38
2022-10-22T21:31:52.728Z,20.35
2022-10-22T21:34:20.272Z,20.31
2022-10-22T21:37:10.548Z,20.31
2022-10-22T21:39:45.276Z,20.29
2022-10-22T21:42:15.596Z,20.27
2022-10-22T21:44:42.669Z,20.29
2022-10-22T21:47:09.823Z,20.25
2022-10-22T21:49:36.858Z,20.23
2022-10-22T21:52:07.047Z,20.21
2022-10-22T21:54:37.629Z,20.18
2022-10-22T21:57:05.223Z,20.14
2022-10-22T21:59:32.556Z,20.14
2022-10-22T22:02:04.780Z,20.13
2022-10-22T22:04:33.250Z,20.09
2022-10-22T22:07:00.520Z,20.07
2022-10-22T22:09:27.596Z,20.04
2022-10-22T22:11:54.762Z,20.05
2022-10-22T22:14:21.983Z,20.07
2022-10-22T22:16:49.082Z,20.02
2022-10-22T22:19:16.251Z,20.00
2022-10-22T22:21:43.373Z,19.98
2022-10-22T22:24:12.997Z,19.96
2022-10-22T22:26:40.493Z,19.90
2022-10-22T22:29:07.552Z,19.89
2022-10-22T22:31:35.534Z,19.90
2022-10-22T22:34:05.501Z,19.91
2022-10-22T22:36:37.629Z,19.90
2022-10-22T22:39:06.963Z,19.89
2022-10-22T22:41:34.550Z,19.90
2022-10-22T22:44:02.252Z,19.87
2022-10-22T22:46:29.573Z,19.84
2022-10-22T22:48:56.730Z,19.79
2022-10-22T22:51:24.310Z,19.76
2022-10-22T22:53:51.930Z,19.74
2022-10-22T22:56:22.449Z,19.72
2022-10-22T22:58:49.981Z,19.69
2022-10-22T23:01:30.113Z,19.67
2022-10-22T23:04:02.553Z,19.66
2022-10-22T23:06:33.190Z,19.64
2022-10-22T23:09:00.670Z,19.62
2022-10-22T23:11:28.581Z,19.60
2022-10-22T23:13:58.123Z,19.58
2022-10-22T23:16:27.652Z,19.55
2022-10-22T23:18:56.053Z,19.56
2022-10-22T23:21:27.109Z,19.57
2022-10-22T23:23:57.644Z,19.58
2022-10-22T23:26:30.569Z,19.58
2022-10-22T23:29:28.164Z,19.59
2022-10-22T23:31:55.982Z,19.60
2022-10-22T23:34:25.447Z,19.62
2022-10-22T23:36:53.378Z,19.61
2022-10-22T23:39:23.276Z,19.61
2022-10-22T23:41:50.975Z,19.61
2022-10-22T23:44:18.059Z,19.61
2022-10-22T23:46:45.251Z,19.61
2022-10-22T23:49:12.497Z,19.63
2022-10-22T23:51:40.820Z,19.65
2022-10-22T23:54:11.333Z,19.63
2022-10-22T23:56:38.999Z,19.62
2022-10-22T23:59:07.112Z,19.61
